PWSweather.com
Personal Weather Stations
Station Observations
ANTHEMNP
Anthem North Parkside, Anthem, AZ 85086

Anthem North ParksideAnthem, AZ 85086

Lat: 33.876464, Lon: -112.13861199999997

Elevation: 1930

Station Type: Davis Vantage Vue with Pro 2 console

http://www.azjerry.com/ANPW/wxindex.php

High Low Average
Temperature 111.9°F44.4°C 85.7°F29.8°C 98.5°F36.9°C
Dew Point 45.0°F7.2°C 34.0°F1.1°C 38.7°F3.7°C
Winds 8.9 mph 14.3 kmh Calm Calm 2.0 mph S3.2 kmh S
Wind Gusts 15.0 mph24.1 kmh -- 6.0 mph9.7 kmh
Humidity 18% 7% 13%
Pressure 29.84 in1010.5 mb 29.84 in1010.5 mb -
Precipitation 0.00 in0.0 mm - -
Hour Temp Dew Point Humidity Winds Wind Gusts Pressure Precip Precip Rate Daily Precip Total
12:00 AM 89.5°F31.9°C 38.0°F3.3°C 16% 2.0 mph N3.2 kmh N 4.0 mph6.4 kmh 29.84 in1010.5 mb 0.00 in0.0 mm 0.00 in0.0 mm 0.00 in0.0 mm
12:10 AM 89.3°F31.8°C 38.0°F3.3°C 16% 1.6 mph N2.6 kmh N 3.0 mph4.8 kmh 29.84 in1010.5 mb 0.00 in0.0 mm 0.00 in0.0 mm 0.00 in0.0 mm
12:20 AM 89.3°F31.8°C 38.0°F3.3°C 16% 2.9 mph ENE4.7 kmh ENE 5.0 mph8.0 kmh 29.84 in1010.5 mb 0.00 in0.0 mm 0.00 in0.0 mm 0.00 in0.0 mm
12:30 AM 89.7°F32.1°C 38.0°F3.3°C 16% 3.1 mph N5.0 kmh N 7.0 mph11.3 kmh 29.84 in1010.5 mb 0.00 in0.0 mm 0.00 in0.0 mm 0.00 in0.0 mm
12:40 AM 89.5°F31.9°C 38.0°F3.3°C 16% 2.9 mph N4.7 kmh N 6.0 mph9.7 kmh 29.84 in1010.5 mb 0.00 in0.0 mm 0.00 in0.0 mm 0.00 in0.0 mm
12:50 AM 89.7°F32.1°C 38.0°F3.3°C 16% 2.4 mph NNE3.9 kmh NNE 5.0 mph8.0 kmh 29.84 in1010.5 mb 0.00 in0.0 mm 0.00 in0.0 mm 0.00 in0.0 mm
01:00 AM 89.1°F31.7°C 37.0°F2.8°C 16% 1.4 mph NNE2.3 kmh NNE 4.0 mph6.4 kmh 29.84 in1010.5 mb 0.00 in0.0 mm 0.00 in0.0 mm 0.00 in0.0 mm
01:10 AM 88.7°F31.5°C 39.0°F3.9°C 17% 0.3 mph N0.5 kmh N 3.0 mph4.8 kmh 29.84 in1010.5 mb 0.00 in0.0 mm 0.00 in0.0 mm 0.00 in0.0 mm
01:20 AM 88.7°F31.5°C 37.0°F2.8°C 16% 0.2 mph N0.3 kmh N 2.0 mph3.2 kmh 29.84 in1010.5 mb 0.00 in0.0 mm 0.00 in0.0 mm 0.00 in0.0 mm
01:30 AM 88.0°F31.1°C 38.0°F3.3°C 17% 0.1 mph N0.2 kmh N 1.0 mph1.6 kmh 29.84 in1010.5 mb 0.00 in0.0 mm 0.00 in0.0 mm 0.00 in0.0 mm
01:40 AM 87.1°F30.6°C 39.0°F3.9°C 18% Calm Calm 1.0 mph1.6 kmh 29.84 in1010.5 mb 0.00 in0.0 mm 0.00 in0.0 mm 0.00 in0.0 mm
01:50 AM 86.3°F30.2°C 38.0°F3.3°C 18% Calm Calm 1.0 mph1.6 kmh 29.84 in1010.5 mb 0.00 in0.0 mm 0.00 in0.0 mm 0.00 in0.0 mm
02:00 AM 87.5°F30.8°C 39.0°F3.9°C 18% 2.0 mph NNE3.2 kmh NNE 5.0 mph8.0 kmh 29.84 in1010.5 mb 0.00 in0.0 mm 0.00 in0.0 mm 0.00 in0.0 mm
02:10 AM 88.3°F31.3°C 38.0°F3.3°C 17% 3.1 mph NNE5.0 kmh NNE 7.0 mph11.3 kmh 29.84 in1010.5 mb 0.00 in0.0 mm 0.00 in0.0 mm 0.00 in0.0 mm
02:20 AM 88.3°F31.3°C 38.0°F3.3°C 17% 5.1 mph NNE8.2 kmh NNE 8.0 mph12.9 kmh 29.84 in1010.5 mb 0.00 in0.0 mm 0.00 in0.0 mm 0.00 in0.0 mm
02:30 AM 88.5°F31.4°C 38.0°F3.3°C 17% 4.1 mph NE6.6 kmh NE 10.0 mph16.1 kmh 29.84 in1010.5 mb 0.00 in0.0 mm 0.00 in0.0 mm 0.00 in0.0 mm
02:40 AM 88.8°F31.6°C 39.0°F3.9°C 17% 6.0 mph NE9.7 kmh NE 11.0 mph17.7 kmh 29.84 in1010.5 mb 0.00 in0.0 mm 0.00 in0.0 mm 0.00 in0.0 mm
02:50 AM 88.8°F31.6°C 39.0°F3.9°C 17% 5.6 mph NNE9.0 kmh NNE 11.0 mph17.7 kmh 29.84 in1010.5 mb 0.00 in0.0 mm 0.00 in0.0 mm 0.00 in0.0 mm
03:00 AM 88.6°F31.4°C 38.0°F3.3°C 17% 5.3 mph NE8.5 kmh NE 10.0 mph16.1 kmh 29.84 in1010.5 mb 0.00 in0.0 mm 0.00 in0.0 mm 0.00 in0.0 mm
03:10 AM 88.7°F31.5°C 39.0°F3.9°C 17% 5.0 mph N8.0 kmh N 10.0 mph16.1 kmh 29.84 in1010.5 mb 0.00 in0.0 mm 0.00 in0.0 mm 0.00 in0.0 mm
03:20 AM 88.4°F31.3°C 38.0°F3.3°C 17% 2.6 mph NNE4.2 kmh NNE 9.0 mph14.5 kmh 29.84 in1010.5 mb 0.00 in0.0 mm 0.00 in0.0 mm 0.00 in0.0 mm
03:30 AM 88.8°F31.6°C 37.0°F2.8°C 16% 0.4 mph E0.6 kmh E 4.0 mph6.4 kmh 29.84 in1010.5 mb 0.00 in0.0 mm 0.00 in0.0 mm 0.00 in0.0 mm
03:40 AM 87.8°F31.0°C 38.0°F3.3°C 17% 0.4 mph NNW0.6 kmh NNW 2.0 mph3.2 kmh 29.84 in1010.5 mb 0.00 in0.0 mm 0.00 in0.0 mm 0.00 in0.0 mm
03:50 AM 87.5°F30.8°C 39.0°F3.9°C 18% 0.9 mph SE1.4 kmh SE 2.0 mph3.2 kmh 29.84 in1010.5 mb 0.00 in0.0 mm 0.00 in0.0 mm 0.00 in0.0 mm
04:00 AM 87.5°F30.8°C 38.0°F3.3°C 17% 0.4 mph NE0.6 kmh NE 2.0 mph3.2 kmh 29.84 in1010.5 mb 0.00 in0.0 mm 0.00 in0.0 mm 0.00 in0.0 mm
04:10 AM 86.9°F30.5°C 39.0°F3.9°C 18% Calm Calm -- 29.84 in1010.5 mb 0.00 in0.0 mm 0.00 in0.0 mm 0.00 in0.0 mm
04:20 AM 85.7°F29.8°C 38.0°F3.3°C 18% 0.2 mph N0.3 kmh N 3.0 mph4.8 kmh 29.84 in1010.5 mb 0.00 in0.0 mm 0.00 in0.0 mm 0.00 in0.0 mm
04:30 AM 85.7°F29.8°C 38.0°F3.3°C 18% 1.3 mph NNE2.1 kmh NNE 3.0 mph4.8 kmh 29.84 in1010.5 mb 0.00 in0.0 mm 0.00 in0.0 mm 0.00 in0.0 mm
04:40 AM 86.6°F30.3°C 38.0°F3.3°C 18% 0.4 mph N0.6 kmh N 5.0 mph8.0 kmh 29.84 in1010.5 mb 0.00 in0.0 mm 0.00 in0.0 mm 0.00 in0.0 mm
04:50 AM 86.5°F30.3°C 38.0°F3.3°C 18% 0.3 mph N0.5 kmh N 2.0 mph3.2 kmh 29.84 in1010.5 mb 0.00 in0.0 mm 0.00 in0.0 mm 0.00 in0.0 mm
05:00 AM 86.2°F30.1°C 38.0°F3.3°C 18% 0.7 mph NNE1.1 kmh NNE 2.0 mph3.2 kmh 29.84 in1010.5 mb 0.00 in0.0 mm 0.00 in0.0 mm 0.00 in0.0 mm
05:10 AM 87.3°F30.7°C 37.0°F2.8°C 17% 3.1 mph NNE5.0 kmh NNE 7.0 mph11.3 kmh 29.84 in1010.5 mb 0.00 in0.0 mm 0.00 in0.0 mm 0.00 in0.0 mm
05:20 AM 87.5°F30.8°C 38.0°F3.3°C 17% 1.3 mph NE2.1 kmh NE 4.0 mph6.4 kmh 29.84 in1010.5 mb 0.00 in0.0 mm 0.00 in0.0 mm 0.00 in0.0 mm
05:30 AM 88.5°F31.4°C 37.0°F2.8°C 16% 2.5 mph NNE4.0 kmh NNE 10.0 mph16.1 kmh 29.84 in1010.5 mb 0.00 in0.0 mm 0.00 in0.0 mm 0.00 in0.0 mm
05:40 AM 89.0°F31.7°C 37.0°F2.8°C 16% 6.1 mph NNW9.8 kmh NNW 11.0 mph17.7 kmh 29.84 in1010.5 mb 0.00 in0.0 mm 0.00 in0.0 mm 0.00 in0.0 mm
05:50 AM 88.2°F31.2°C 38.0°F3.3°C 17% 4.4 mph N7.1 kmh N 10.0 mph16.1 kmh 29.84 in1010.5 mb 0.00 in0.0 mm 0.00 in0.0 mm 0.00 in0.0 mm
06:00 AM 88.3°F31.3°C 38.0°F3.3°C 17% 4.0 mph N6.4 kmh N 9.0 mph14.5 kmh 29.84 in1010.5 mb 0.00 in0.0 mm 0.00 in0.0 mm 0.00 in0.0 mm
06:10 AM 88.5°F31.4°C 38.0°F3.3°C 17% 1.5 mph NNE2.4 kmh NNE 5.0 mph8.0 kmh 29.84 in1010.5 mb 0.00 in0.0 mm 0.00 in0.0 mm 0.00 in0.0 mm
06:20 AM 88.5°F31.4°C 38.0°F3.3°C 17% 2.5 mph NNE4.0 kmh NNE 5.0 mph8.0 kmh 29.84 in1010.5 mb 0.00 in0.0 mm 0.00 in0.0 mm 0.00 in0.0 mm
06:30 AM 88.8°F31.6°C 37.0°F2.8°C 16% 3.7 mph NE6.0 kmh NE 8.0 mph12.9 kmh 29.84 in1010.5 mb 0.00 in0.0 mm 0.00 in0.0 mm 0.00 in0.0 mm
06:40 AM 89.0°F31.7°C 39.0°F3.9°C 17% 1.3 mph N2.1 kmh N 6.0 mph9.7 kmh 29.84 in1010.5 mb 0.00 in0.0 mm 0.00 in0.0 mm 0.00 in0.0 mm
06:50 AM 89.7°F32.1°C 38.0°F3.3°C 16% 2.2 mph NNE3.5 kmh NNE 6.0 mph9.7 kmh 29.84 in1010.5 mb 0.00 in0.0 mm 0.00 in0.0 mm 0.00 in0.0 mm
07:00 AM 89.8°F32.1°C 38.0°F3.3°C 16% 2.1 mph NNE3.4 kmh NNE 6.0 mph9.7 kmh 29.84 in1010.5 mb 0.00 in0.0 mm 0.00 in0.0 mm 0.00 in0.0 mm
07:10 AM 90.1°F32.3°C 38.0°F3.3°C 16% 3.8 mph NNE6.1 kmh NNE 8.0 mph12.9 kmh 29.84 in1010.5 mb 0.00 in0.0 mm 0.00 in0.0 mm 0.00 in0.0 mm
07:20 AM 92.8°F33.8°C 39.0°F3.9°C 15% 6.5 mph NNE10.5 kmh NNE 12.0 mph19.3 kmh 29.84 in1010.5 mb 0.00 in0.0 mm 0.00 in0.0 mm 0.00 in0.0 mm
07:30 AM 93.2°F34.0°C 39.0°F3.9°C 15% 8.9 mph NE14.3 kmh NE 15.0 mph24.1 kmh 29.84 in1010.5 mb 0.00 in0.0 mm 0.00 in0.0 mm 0.00 in0.0 mm
07:40 AM 93.5°F34.2°C 39.0°F3.9°C 15% 6.0 mph NE9.7 kmh NE 14.0 mph22.5 kmh 29.84 in1010.5 mb 0.00 in0.0 mm 0.00 in0.0 mm 0.00 in0.0 mm
07:50 AM 93.5°F34.2°C 39.0°F3.9°C 15% 5.3 mph NNE8.5 kmh NNE 11.0 mph17.7 kmh 29.84 in1010.5 mb 0.00 in0.0 mm 0.00 in0.0 mm 0.00 in0.0 mm
08:00 AM 93.5°F34.2°C 39.0°F3.9°C 15% 3.6 mph NE5.8 kmh NE 9.0 mph14.5 kmh 29.84 in1010.5 mb 0.00 in0.0 mm 0.00 in0.0 mm 0.00 in0.0 mm
08:10 AM 94.0°F34.4°C 40.0°F4.4°C 15% 2.1 mph NW3.4 kmh NW 6.0 mph9.7 kmh 29.84 in1010.5 mb 0.00 in0.0 mm 0.00 in0.0 mm 0.00 in0.0 mm
08:20 AM 95.2°F35.1°C 41.0°F5.0°C 15% 0.4 mph NW0.6 kmh NW 4.0 mph6.4 kmh 29.84 in1010.5 mb 0.00 in0.0 mm 0.00 in0.0 mm 0.00 in0.0 mm
08:30 AM 97.5°F36.4°C 39.0°F3.9°C 13% 1.6 mph NNW2.6 kmh NNW 5.0 mph8.0 kmh 29.84 in1010.5 mb 0.00 in0.0 mm 0.00 in0.0 mm 0.00 in0.0 mm
08:40 AM 99.3°F37.4°C 40.0°F4.4°C 13% 2.0 mph NNW3.2 kmh NNW 6.0 mph9.7 kmh 29.84 in1010.5 mb 0.00 in0.0 mm 0.00 in0.0 mm 0.00 in0.0 mm
08:50 AM 100.3°F37.9°C 39.0°F3.9°C 12% 2.1 mph N3.4 kmh N 4.0 mph6.4 kmh 29.84 in1010.5 mb 0.00 in0.0 mm 0.00 in0.0 mm 0.00 in0.0 mm
09:00 AM 100.3°F37.9°C 39.0°F3.9°C 12% 3.0 mph N4.8 kmh N 6.0 mph9.7 kmh 29.84 in1010.5 mb 0.00 in0.0 mm 0.00 in0.0 mm 0.00 in0.0 mm
09:10 AM 100.9°F38.3°C 40.0°F4.4°C 12% 2.0 mph N3.2 kmh N 6.0 mph9.7 kmh 29.84 in1010.5 mb 0.00 in0.0 mm 0.00 in0.0 mm 0.00 in0.0 mm
09:20 AM 100.7°F38.2°C 37.0°F2.8°C 11% 2.1 mph NW3.4 kmh NW 5.0 mph8.0 kmh 29.84 in1010.5 mb 0.00 in0.0 mm 0.00 in0.0 mm 0.00 in0.0 mm
09:30 AM 100.9°F38.3°C 37.0°F2.8°C 11% 1.5 mph NW2.4 kmh NW 3.0 mph4.8 kmh 29.84 in1010.5 mb 0.00 in0.0 mm 0.00 in0.0 mm 0.00 in0.0 mm
09:40 AM 101.6°F38.7°C 38.0°F3.3°C 11% 0.4 mph WSW0.6 kmh WSW 2.0 mph3.2 kmh 29.84 in1010.5 mb 0.00 in0.0 mm 0.00 in0.0 mm 0.00 in0.0 mm
09:50 AM 104.9°F40.5°C 41.0°F5.0°C 11% Calm Calm 4.0 mph6.4 kmh 29.84 in1010.5 mb 0.00 in0.0 mm 0.00 in0.0 mm 0.00 in0.0 mm
10:00 AM 107.2°F41.8°C 37.0°F2.8°C 9% 0.1 mph NNW0.2 kmh NNW 2.0 mph3.2 kmh 29.84 in1010.5 mb 0.00 in0.0 mm 0.00 in0.0 mm 0.00 in0.0 mm
10:10 AM 107.1°F41.7°C 40.0°F4.4°C 10% 1.1 mph SW1.8 kmh SW 5.0 mph8.0 kmh 29.84 in1010.5 mb 0.00 in0.0 mm 0.00 in0.0 mm 0.00 in0.0 mm
10:20 AM 105.9°F41.1°C 39.0°F3.9°C 10% 3.5 mph SW5.6 kmh SW 7.0 mph11.3 kmh 29.84 in1010.5 mb 0.00 in0.0 mm 0.00 in0.0 mm 0.00 in0.0 mm
10:30 AM 106.2°F41.2°C 39.0°F3.9°C 10% 3.6 mph SW5.8 kmh SW 7.0 mph11.3 kmh 29.84 in1010.5 mb 0.00 in0.0 mm 0.00 in0.0 mm 0.00 in0.0 mm
10:40 AM 105.8°F41.0°C 39.0°F3.9°C 10% 3.0 mph SSW4.8 kmh SSW 7.0 mph11.3 kmh 29.84 in1010.5 mb 0.00 in0.0 mm 0.00 in0.0 mm 0.00 in0.0 mm
10:50 AM 105.4°F40.8°C 41.0°F5.0°C 11% 3.9 mph SSW6.3 kmh SSW 10.0 mph16.1 kmh 29.84 in1010.5 mb 0.00 in0.0 mm 0.00 in0.0 mm 0.00 in0.0 mm
11:00 AM 104.5°F40.3°C 40.0°F4.4°C 11% 3.6 mph WSW5.8 kmh WSW 10.0 mph16.1 kmh 29.84 in1010.5 mb 0.00 in0.0 mm 0.00 in0.0 mm 0.00 in0.0 mm
11:10 AM 104.8°F40.4°C 40.0°F4.4°C 11% 2.8 mph SE4.5 kmh SE 7.0 mph11.3 kmh 29.84 in1010.5 mb 0.00 in0.0 mm 0.00 in0.0 mm 0.00 in0.0 mm
11:20 AM 105.8°F41.0°C 41.0°F5.0°C 11% 2.9 mph SE4.7 kmh SE 11.0 mph17.7 kmh 29.84 in1010.5 mb 0.00 in0.0 mm 0.00 in0.0 mm 0.00 in0.0 mm
11:30 AM 106.5°F41.4°C 42.0°F5.6°C 11% 2.4 mph SSW3.9 kmh SSW 7.0 mph11.3 kmh 29.84 in1010.5 mb 0.00 in0.0 mm 0.00 in0.0 mm 0.00 in0.0 mm
11:40 AM 106.3°F41.3°C 39.0°F3.9°C 10% 2.1 mph WSW3.4 kmh WSW 10.0 mph16.1 kmh 29.84 in1010.5 mb 0.00 in0.0 mm 0.00 in0.0 mm 0.00 in0.0 mm
11:50 AM 106.9°F41.6°C 42.0°F5.6°C 11% 1.9 mph SSE3.1 kmh SSE 9.0 mph14.5 kmh 29.84 in1010.5 mb 0.00 in0.0 mm 0.00 in0.0 mm 0.00 in0.0 mm
12:00 PM 106.9°F41.6°C 40.0°F4.4°C 10% 3.5 mph SW5.6 kmh SW 10.0 mph16.1 kmh 29.84 in1010.5 mb 0.00 in0.0 mm 0.00 in0.0 mm 0.00 in0.0 mm
12:10 PM 106.9°F41.6°C 40.0°F4.4°C 10% 4.4 mph SW7.1 kmh SW 11.0 mph17.7 kmh 29.84 in1010.5 mb 0.00 in0.0 mm 0.00 in0.0 mm 0.00 in0.0 mm
12:20 PM 107.9°F42.2°C 38.0°F3.3°C 9% 4.0 mph SW6.4 kmh SW 9.0 mph14.5 kmh 29.84 in1010.5 mb 0.00 in0.0 mm 0.00 in0.0 mm 0.00 in0.0 mm
12:30 PM 107.5°F41.9°C 40.0°F4.4°C 10% 4.1 mph S6.6 kmh S 10.0 mph16.1 kmh 29.84 in1010.5 mb 0.00 in0.0 mm 0.00 in0.0 mm 0.00 in0.0 mm
12:40 PM 106.9°F41.6°C 40.0°F4.4°C 10% 4.3 mph SW6.9 kmh SW 9.0 mph14.5 kmh 29.84 in1010.5 mb 0.00 in0.0 mm 0.00 in0.0 mm 0.00 in0.0 mm
12:50 PM 106.7°F41.5°C 40.0°F4.4°C 10% 3.4 mph SSE5.5 kmh SSE 10.0 mph16.1 kmh 29.84 in1010.5 mb 0.00 in0.0 mm 0.00 in0.0 mm 0.00 in0.0 mm
01:00 PM 106.9°F41.6°C 40.0°F4.4°C 10% 2.9 mph SSE4.7 kmh SSE 11.0 mph17.7 kmh 29.84 in1010.5 mb 0.00 in0.0 mm 0.00 in0.0 mm 0.00 in0.0 mm
01:10 PM 107.6°F42.0°C 40.0°F4.4°C 10% 3.1 mph SSE5.0 kmh SSE 10.0 mph16.1 kmh 29.84 in1010.5 mb 0.00 in0.0 mm 0.00 in0.0 mm 0.00 in0.0 mm
01:20 PM 107.4°F41.9°C 40.0°F4.4°C 10% 5.3 mph S8.5 kmh S 12.0 mph19.3 kmh 29.84 in1010.5 mb 0.00 in0.0 mm 0.00 in0.0 mm 0.00 in0.0 mm
01:30 PM 109.1°F42.8°C 39.0°F3.9°C 9% 1.6 mph NW2.6 kmh NW 6.0 mph9.7 kmh 29.84 in1010.5 mb 0.00 in0.0 mm 0.00 in0.0 mm 0.00 in0.0 mm
01:40 PM 109.4°F43.0°C 39.0°F3.9°C 9% 1.9 mph SW3.1 kmh SW 9.0 mph14.5 kmh 29.84 in1010.5 mb 0.00 in0.0 mm 0.00 in0.0 mm 0.00 in0.0 mm
01:50 PM 109.9°F43.3°C 36.0°F2.2°C 8% 3.3 mph NW5.3 kmh NW 13.0 mph20.9 kmh 29.84 in1010.5 mb 0.00 in0.0 mm 0.00 in0.0 mm 0.00 in0.0 mm
02:00 PM 110.5°F43.6°C 37.0°F2.8°C 8% 3.0 mph SW4.8 kmh SW 12.0 mph19.3 kmh 29.84 in1010.5 mb 0.00 in0.0 mm 0.00 in0.0 mm 0.00 in0.0 mm
02:10 PM 110.5°F43.6°C 37.0°F2.8°C 8% 2.9 mph ENE4.7 kmh ENE 13.0 mph20.9 kmh 29.84 in1010.5 mb 0.00 in0.0 mm 0.00 in0.0 mm 0.00 in0.0 mm
02:20 PM 110.7°F43.7°C 37.0°F2.8°C 8% 1.8 mph SE2.9 kmh SE 12.0 mph19.3 kmh 29.84 in1010.5 mb 0.00 in0.0 mm 0.00 in0.0 mm 0.00 in0.0 mm
02:30 PM 111.5°F44.2°C 38.0°F3.3°C 8% 3.0 mph S4.8 kmh S 10.0 mph16.1 kmh 29.84 in1010.5 mb 0.00 in0.0 mm 0.00 in0.0 mm 0.00 in0.0 mm
02:40 PM 111.9°F44.4°C 34.0°F1.1°C 7% 1.9 mph SSW3.1 kmh SSW 10.0 mph16.1 kmh 29.84 in1010.5 mb 0.00 in0.0 mm 0.00 in0.0 mm 0.00 in0.0 mm
02:50 PM 110.7°F43.7°C 37.0°F2.8°C 8% 1.6 mph SE2.6 kmh SE 4.0 mph6.4 kmh 29.84 in1010.5 mb 0.00 in0.0 mm 0.00 in0.0 mm 0.00 in0.0 mm
03:00 PM 111.5°F44.2°C 38.0°F3.3°C 8% 0.8 mph WSW1.3 kmh WSW 6.0 mph9.7 kmh 29.84 in1010.5 mb 0.00 in0.0 mm 0.00 in0.0 mm 0.00 in0.0 mm
03:10 PM 111.0°F43.9°C 37.0°F2.8°C 8% 2.2 mph SW3.5 kmh SW 10.0 mph16.1 kmh 29.84 in1010.5 mb 0.00 in0.0 mm 0.00 in0.0 mm 0.00 in0.0 mm
03:20 PM 110.7°F43.7°C 37.0°F2.8°C 8% 6.7 mph S10.8 kmh S 15.0 mph24.1 kmh 29.84 in1010.5 mb 0.00 in0.0 mm 0.00 in0.0 mm 0.00 in0.0 mm
03:30 PM 110.8°F43.8°C 37.0°F2.8°C 8% 3.1 mph SW5.0 kmh SW 12.0 mph19.3 kmh 29.84 in1010.5 mb 0.00 in0.0 mm 0.00 in0.0 mm 0.00 in0.0 mm
03:40 PM 110.8°F43.8°C 37.0°F2.8°C 8% 3.8 mph SSE6.1 kmh SSE 14.0 mph22.5 kmh 29.84 in1010.5 mb 0.00 in0.0 mm 0.00 in0.0 mm 0.00 in0.0 mm
03:50 PM 110.6°F43.7°C 37.0°F2.8°C 8% 5.4 mph SW8.7 kmh SW 12.0 mph19.3 kmh 29.84 in1010.5 mb 0.00 in0.0 mm 0.00 in0.0 mm 0.00 in0.0 mm
04:00 PM 110.5°F43.6°C 37.0°F2.8°C 8% 3.0 mph NW4.8 kmh NW 7.0 mph11.3 kmh 29.84 in1010.5 mb 0.00 in0.0 mm 0.00 in0.0 mm 0.00 in0.0 mm
04:10 PM 109.9°F43.3°C 36.0°F2.2°C 8% 2.1 mph SSE3.4 kmh SSE 11.0 mph17.7 kmh 29.84 in1010.5 mb 0.00 in0.0 mm 0.00 in0.0 mm 0.00 in0.0 mm
04:20 PM 110.3°F43.5°C 37.0°F2.8°C 8% 1.4 mph NW2.3 kmh NW 13.0 mph20.9 kmh 29.84 in1010.5 mb 0.00 in0.0 mm 0.00 in0.0 mm 0.00 in0.0 mm
04:30 PM 110.3°F43.5°C 37.0°F2.8°C 8% 2.0 mph SW3.2 kmh SW 10.0 mph16.1 kmh 29.84 in1010.5 mb 0.00 in0.0 mm 0.00 in0.0 mm 0.00 in0.0 mm
04:40 PM 109.5°F43.1°C 36.0°F2.2°C 8% 3.9 mph WNW6.3 kmh WNW 13.0 mph20.9 kmh 29.84 in1010.5 mb 0.00 in0.0 mm 0.00 in0.0 mm 0.00 in0.0 mm
04:50 PM 109.2°F42.9°C 36.0°F2.2°C 8% 3.1 mph SE5.0 kmh SE 13.0 mph20.9 kmh 29.84 in1010.5 mb 0.00 in0.0 mm 0.00 in0.0 mm 0.00 in0.0 mm
05:00 PM 108.1°F42.3°C 35.0°F1.7°C 8% 2.6 mph NW4.2 kmh NW 7.0 mph11.3 kmh 29.84 in1010.5 mb 0.00 in0.0 mm 0.00 in0.0 mm 0.00 in0.0 mm
05:10 PM 108.1°F42.3°C 35.0°F1.7°C 8% 3.2 mph SE5.1 kmh SE 7.0 mph11.3 kmh 29.84 in1010.5 mb 0.00 in0.0 mm 0.00 in0.0 mm 0.00 in0.0 mm
05:20 PM 107.5°F41.9°C 34.0°F1.1°C 8% 2.8 mph N4.5 kmh N 6.0 mph9.7 kmh 29.84 in1010.5 mb 0.00 in0.0 mm 0.00 in0.0 mm 0.00 in0.0 mm
05:30 PM 107.1°F41.7°C 37.0°F2.8°C 9% 3.1 mph NW5.0 kmh NW 6.0 mph9.7 kmh 29.84 in1010.5 mb 0.00 in0.0 mm 0.00 in0.0 mm 0.00 in0.0 mm
05:40 PM 106.6°F41.4°C 37.0°F2.8°C 9% 3.1 mph E5.0 kmh E 6.0 mph9.7 kmh 29.84 in1010.5 mb 0.00 in0.0 mm 0.00 in0.0 mm 0.00 in0.0 mm
05:50 PM 106.3°F41.3°C 36.0°F2.2°C 9% 3.1 mph SE5.0 kmh SE 11.0 mph17.7 kmh 29.84 in1010.5 mb 0.00 in0.0 mm 0.00 in0.0 mm 0.00 in0.0 mm
06:00 PM 105.6°F40.9°C 39.0°F3.9°C 10% 2.1 mph NW3.4 kmh NW 6.0 mph9.7 kmh 29.84 in1010.5 mb 0.00 in0.0 mm 0.00 in0.0 mm 0.00 in0.0 mm
06:10 PM 105.2°F40.7°C 38.0°F3.3°C 10% 1.6 mph NW2.6 kmh NW 5.0 mph8.0 kmh 29.84 in1010.5 mb 0.00 in0.0 mm 0.00 in0.0 mm 0.00 in0.0 mm
06:20 PM 104.7°F40.4°C 38.0°F3.3°C 10% 1.9 mph NW3.1 kmh NW 5.0 mph8.0 kmh 29.84 in1010.5 mb 0.00 in0.0 mm 0.00 in0.0 mm 0.00 in0.0 mm
06:30 PM 104.3°F40.2°C 38.0°F3.3°C 10% 1.2 mph SE1.9 kmh SE 5.0 mph8.0 kmh 29.84 in1010.5 mb 0.00 in0.0 mm 0.00 in0.0 mm 0.00 in0.0 mm
06:40 PM 103.7°F39.8°C 37.0°F2.8°C 10% 1.9 mph NW3.1 kmh NW 5.0 mph8.0 kmh 29.84 in1010.5 mb 0.00 in0.0 mm 0.00 in0.0 mm 0.00 in0.0 mm
06:50 PM 103.4°F39.7°C 39.0°F3.9°C 11% 1.4 mph NW2.3 kmh NW 4.0 mph6.4 kmh 29.84 in1010.5 mb 0.00 in0.0 mm 0.00 in0.0 mm 0.00 in0.0 mm
07:00 PM 103.3°F39.6°C 37.0°F2.8°C 10% 1.9 mph NW3.1 kmh NW 4.0 mph6.4 kmh 29.84 in1010.5 mb 0.00 in0.0 mm 0.00 in0.0 mm 0.00 in0.0 mm
07:10 PM 103.1°F39.5°C 37.0°F2.8°C 10% 2.4 mph N3.9 kmh N 4.0 mph6.4 kmh 29.84 in1010.5 mb 0.00 in0.0 mm 0.00 in0.0 mm 0.00 in0.0 mm
07:20 PM 102.9°F39.4°C 37.0°F2.8°C 10% 2.7 mph NW4.3 kmh NW 7.0 mph11.3 kmh 29.84 in1010.5 mb 0.00 in0.0 mm 0.00 in0.0 mm 0.00 in0.0 mm
07:30 PM 102.4°F39.1°C 39.0°F3.9°C 11% 1.9 mph NW3.1 kmh NW 4.0 mph6.4 kmh 29.84 in1010.5 mb 0.00 in0.0 mm 0.00 in0.0 mm 0.00 in0.0 mm
07:40 PM 102.1°F38.9°C 38.0°F3.3°C 11% 1.6 mph NW2.6 kmh NW 4.0 mph6.4 kmh 29.84 in1010.5 mb 0.00 in0.0 mm 0.00 in0.0 mm 0.00 in0.0 mm
07:50 PM 101.8°F38.8°C 38.0°F3.3°C 11% 2.8 mph NNW4.5 kmh NNW 5.0 mph8.0 kmh 29.84 in1010.5 mb 0.00 in0.0 mm 0.00 in0.0 mm 0.00 in0.0 mm
08:00 PM 101.2°F38.4°C 38.0°F3.3°C 11% 0.8 mph NW1.3 kmh NW 6.0 mph9.7 kmh 29.84 in1010.5 mb 0.00 in0.0 mm 0.00 in0.0 mm 0.00 in0.0 mm
08:10 PM 100.4°F38.0°C 37.0°F2.8°C 11% 0.1 mph NW0.2 kmh NW 1.0 mph1.6 kmh 29.84 in1010.5 mb 0.00 in0.0 mm 0.00 in0.0 mm 0.00 in0.0 mm
08:20 PM 99.8°F37.7°C 39.0°F3.9°C 12% 0.5 mph NW0.8 kmh NW 2.0 mph3.2 kmh 29.84 in1010.5 mb 0.00 in0.0 mm 0.00 in0.0 mm 0.00 in0.0 mm
08:30 PM 99.1°F37.3°C 38.0°F3.3°C 12% Calm Calm 1.0 mph1.6 kmh 29.84 in1010.5 mb 0.00 in0.0 mm 0.00 in0.0 mm 0.00 in0.0 mm
08:40 PM 98.7°F37.1°C 38.0°F3.3°C 12% 0.7 mph N1.1 kmh N 4.0 mph6.4 kmh 29.84 in1010.5 mb 0.00 in0.0 mm 0.00 in0.0 mm 0.00 in0.0 mm
08:50 PM 97.9°F36.6°C 39.0°F3.9°C 13% 1.4 mph NNE2.3 kmh NNE 4.0 mph6.4 kmh 29.84 in1010.5 mb 0.00 in0.0 mm 0.00 in0.0 mm 0.00 in0.0 mm
09:00 PM 97.4°F36.3°C 39.0°F3.9°C 13% 0.4 mph NNE0.6 kmh NNE 2.0 mph3.2 kmh 29.84 in1010.5 mb 0.00 in0.0 mm 0.00 in0.0 mm 0.00 in0.0 mm
09:10 PM 97.3°F36.3°C 39.0°F3.9°C 13% 1.5 mph NNE2.4 kmh NNE 4.0 mph6.4 kmh 29.84 in1010.5 mb 0.00 in0.0 mm 0.00 in0.0 mm 0.00 in0.0 mm
09:20 PM 97.5°F36.4°C 43.0°F6.1°C 15% 2.4 mph N3.9 kmh N 6.0 mph9.7 kmh 29.84 in1010.5 mb 0.00 in0.0 mm 0.00 in0.0 mm 0.00 in0.0 mm
09:30 PM 97.4°F36.3°C 44.0°F6.7°C 16% 1.7 mph N2.7 kmh N 4.0 mph6.4 kmh 29.84 in1010.5 mb 0.00 in0.0 mm 0.00 in0.0 mm 0.00 in0.0 mm
09:40 PM 97.0°F36.1°C 44.0°F6.7°C 16% 0.6 mph N1.0 kmh N 4.0 mph6.4 kmh 29.84 in1010.5 mb 0.00 in0.0 mm 0.00 in0.0 mm 0.00 in0.0 mm
09:50 PM 96.0°F35.6°C 43.0°F6.1°C 16% Calm Calm 1.0 mph1.6 kmh 29.84 in1010.5 mb 0.00 in0.0 mm 0.00 in0.0 mm 0.00 in0.0 mm
10:00 PM 94.9°F34.9°C 44.0°F6.7°C 17% Calm Calm -- 29.84 in1010.5 mb 0.00 in0.0 mm 0.00 in0.0 mm 0.00 in0.0 mm
10:10 PM 94.2°F34.6°C 45.0°F7.2°C 18% Calm Calm 1.0 mph1.6 kmh 29.84 in1010.5 mb 0.00 in0.0 mm 0.00 in0.0 mm 0.00 in0.0 mm
10:20 PM 93.8°F34.3°C 44.0°F6.7°C 18% Calm Calm 1.0 mph1.6 kmh 29.84 in1010.5 mb 0.00 in0.0 mm 0.00 in0.0 mm 0.00 in0.0 mm
10:30 PM 93.3°F34.1°C 44.0°F6.7°C 18% Calm Calm -- 29.84 in1010.5 mb 0.00 in0.0 mm 0.00 in0.0 mm 0.00 in0.0 mm
10:40 PM 93.5°F34.2°C 41.0°F5.0°C 16% 0.3 mph SW0.5 kmh SW 2.0 mph3.2 kmh 29.84 in1010.5 mb 0.00 in0.0 mm 0.00 in0.0 mm 0.00 in0.0 mm
10:50 PM 93.2°F34.0°C 41.0°F5.0°C 16% Calm Calm 1.0 mph1.6 kmh 29.84 in1010.5 mb 0.00 in0.0 mm 0.00 in0.0 mm 0.00 in0.0 mm
11:00 PM 92.7°F33.7°C 42.0°F5.6°C 17% Calm Calm 1.0 mph1.6 kmh 29.84 in1010.5 mb 0.00 in0.0 mm 0.00 in0.0 mm 0.00 in0.0 mm
11:10 PM 92.7°F33.7°C 42.0°F5.6°C 17% Calm Calm 1.0 mph1.6 kmh 29.84 in1010.5 mb 0.00 in0.0 mm 0.00 in0.0 mm 0.00 in0.0 mm
11:20 PM 92.9°F33.8°C 42.0°F5.6°C 17% 0.3 mph N0.5 kmh N 2.0 mph3.2 kmh 29.84 in1010.5 mb 0.00 in0.0 mm 0.00 in0.0 mm 0.00 in0.0 mm
11:30 PM 92.8°F33.8°C 42.0°F5.6°C 17% 0.1 mph N0.2 kmh N 2.0 mph3.2 kmh 29.84 in1010.5 mb 0.00 in0.0 mm 0.00 in0.0 mm 0.00 in0.0 mm
11:40 PM 92.5°F33.6°C 42.0°F5.6°C 17% Calm Calm 1.0 mph1.6 kmh 29.84 in1010.5 mb 0.00 in0.0 mm 0.00 in0.0 mm 0.00 in0.0 mm
11:50 PM 92.6°F33.7°C 42.0°F5.6°C 17% Calm Calm 1.0 mph1.6 kmh 29.84 in1010.5 mb 0.00 in0.0 mm 0.00 in0.0 mm 0.00 in0.0 mm